Time;durP1;ratioP1;P1;durP2;ratioP2;P2;SDS_P1;SDS_P2;PMS_P1;PMS_P2;Temp;Humidity;BMP_temperature;BMP_pressure;BME280_temperature;BME280_humidity;BME280_pressure;Samples;Min_cycle;Max_cycle;Signal;HPM_P1;HPM_P2
2021/07/18 00:00:58;;;;;;;15.80;12.77;;;18.20;99.90;;;;;;5083848;28;20453;-71
2021/07/18 00:03:25;;;;;;;14.63;13.03;;;18.20;99.90;;;;;;5084437;28;20472;-71
2021/07/18 00:05:52;;;;;;;18.77;12.83;;;18.10;99.90;;;;;;5175319;22;20493;-74
2021/07/18 00:08:20;;;;;;;14.60;12.60;;;18.10;99.90;;;;;;5088681;28;20453;-73
2021/07/18 00:10:48;;;;;;;15.60;12.13;;;18.00;99.90;;;;;;5088395;28;20524;-73
2021/07/18 00:13:15;;;;;;;13.70;12.30;;;18.00;99.90;;;;;;5089036;28;20465;-73
2021/07/18 00:15:42;;;;;;;14.27;12.43;;;17.90;99.90;;;;;;5089020;28;20484;-73
2021/07/18 00:18:09;;;;;;;14.27;12.37;;;17.90;99.90;;;;;;5051485;28;20870;-73
2021/07/18 00:20:36;;;;;;;14.03;12.70;;;17.90;99.90;;;;;;5048954;28;20887;-73
2021/07/18 00:23:03;;;;;;;14.33;12.17;;;17.80;99.90;;;;;;5049189;28;20491;-73
2021/07/18 00:25:32;;;;;;;13.37;11.97;;;17.80;99.90;;;;;;5049441;28;20483;-73
2021/07/18 00:27:59;;;;;;;13.33;11.20;;;17.80;99.90;;;;;;5048995;28;20943;-73
2021/07/18 00:30:25;;;;;;;15.93;11.63;;;17.80;99.90;;;;;;5048754;28;20459;-73
2021/07/18 00:32:52;;;;;;;12.60;10.10;;;17.80;99.90;;;;;;5048898;28;20869;-73
2021/07/18 00:35:19;;;;;;;11.67;10.43;;;17.80;99.90;;;;;;5049069;28;20858;-73
2021/07/18 00:37:46;;;;;;;17.33;11.10;;;17.80;99.90;;;;;;5049131;28;20451;-73
2021/07/18 00:40:14;;;;;;;11.40;10.20;;;17.80;99.90;;;;;;5047842;28;20459;-73
2021/07/18 00:42:42;;;;;;;11.10;10.10;;;17.80;99.90;;;;;;5048882;28;20482;-73
2021/07/18 00:45:12;;;;;;;15.07;9.90;;;17.80;99.90;;;;;;5049039;28;21012;-73
2021/07/18 00:47:40;;;;;;;12.60;10.10;;;17.80;99.90;;;;;;5048873;28;20469;-73
2021/07/18 00:50:10;;;;;;;11.93;10.20;;;17.80;99.90;;;;;;5048429;28;20506;-73
2021/07/18 00:52:37;;;;;;;11.37;10.27;;;17.80;99.90;;;;;;5048795;28;20494;-73
2021/07/18 00:55:04;;;;;;;12.20;10.33;;;17.80;99.90;;;;;;5048992;28;20483;-74
2021/07/18 00:57:31;;;;;;;12.20;10.37;;;17.80;99.90;;;;;;5048841;28;21036;-73
2021/07/18 01:00:01;;;;;;;14.00;9.63;;;17.70;99.90;;;;;;5049698;28;21193;-73
2021/07/18 01:02:27;;;;;;;12.83;8.93;;;17.70;99.90;;;;;;5048719;28;20455;-73
2021/07/18 01:04:55;;;;;;;13.40;9.70;;;17.70;99.90;;;;;;5048441;28;20863;-73
2021/07/18 01:07:22;;;;;;;10.40;8.93;;;17.70;99.90;;;;;;5048729;28;20463;-73
2021/07/18 01:09:48;;;;;;;10.23;9.30;;;17.60;99.90;;;;;;5047881;28;20885;-74
2021/07/18 01:12:16;;;;;;;11.27;9.47;;;17.60;99.90;;;;;;5048663;28;20487;-73
2021/07/18 01:14:44;;;;;;;10.00;8.63;;;17.60;99.90;;;;;;5048565;28;20526;-74
2021/07/18 01:17:12;;;;;;;11.70;8.33;;;17.60;99.90;;;;;;5048632;28;20534;-73
2021/07/18 01:19:40;;;;;;;12.07;8.47;;;17.60;99.90;;;;;;5048231;28;20462;-73
2021/07/18 01:22:09;;;;;;;10.17;8.10;;;17.50;99.90;;;;;;5048410;28;20970;-73
2021/07/18 01:24:36;;;;;;;9.03;8.10;;;17.50;99.90;;;;;;5048603;28;20998;-73
2021/07/18 01:27:05;;;;;;;12.23;8.90;;;17.50;99.90;;;;;;5048181;28;20965;-73
2021/07/18 01:29:32;;;;;;;8.63;7.83;;;17.50;99.90;;;;;;5048099;28;20466;-73
2021/07/18 01:32:00;;;;;;;8.70;7.80;;;17.50;99.90;;;;;;5048206;28;20479;-73
2021/07/18 01:34:27;;;;;;;9.50;8.60;;;17.40;99.90;;;;;;5048330;28;20483;-73
2021/07/18 01:36:54;;;;;;;9.63;8.33;;;17.40;99.90;;;;;;5048386;28;21274;-73
2021/07/18 01:39:23;;;;;;;8.57;7.40;;;17.40;99.90;;;;;;5048022;28;20471;-73
2021/07/18 01:41:55;;;;;;;7.80;7.10;;;17.30;99.90;;;;;;5048264;28;20463;-73
2021/07/18 01:44:21;;;;;;;9.27;7.23;;;17.30;99.90;;;;;;5048457;28;20506;-73
2021/07/18 01:46:49;;;;;;;10.20;6.50;;;17.30;99.90;;;;;;5048154;28;20463;-73
2021/07/18 01:49:15;;;;;;;10.30;7.57;;;17.30;99.90;;;;;;5048053;28;21213;-73
2021/07/18 01:51:42;;;;;;;9.80;6.80;;;17.30;99.90;;;;;;5050095;28;20463;-73
2021/07/18 01:54:10;;;;;;;7.93;7.13;;;17.20;99.90;;;;;;5051860;28;20490;-73
2021/07/18 01:56:40;;;;;;;7.47;5.90;;;17.20;99.90;;;;;;5051792;28;20516;-72
2021/07/18 01:59:07;;;;;;;7.03;5.57;;;17.20;99.90;;;;;;5051538;28;20487;-73
2021/07/18 02:01:34;;;;;;;6.83;5.63;;;17.20;99.90;;;;;;5051862;28;20509;-73
2021/07/18 02:04:02;;;;;;;7.50;5.43;;;17.20;99.90;;;;;;5051328;28;20475;-72
2021/07/18 02:06:29;;;;;;;8.80;5.53;;;17.20;99.90;;;;;;5051815;28;20546;-73
2021/07/18 02:08:58;;;;;;;7.77;5.27;;;17.20;99.90;;;;;;5051353;28;20455;-72
2021/07/18 02:11:25;;;;;;;9.87;5.43;;;17.10;99.90;;;;;;5051224;28;20834;-72
2021/07/18 02:13:55;;;;;;;6.37;4.90;;;17.10;99.90;;;;;;5051297;28;20537;-72
2021/07/18 02:16:22;;;;;;;7.50;5.53;;;17.10;99.90;;;;;;5051582;28;20946;-73
2021/07/18 02:18:50;;;;;;;5.73;5.10;;;17.00;99.90;;;;;;5051396;28;20471;-72
2021/07/18 02:21:17;;;;;;;5.90;5.30;;;17.00;99.90;;;;;;5051044;28;20466;-73
2021/07/18 02:23:44;;;;;;;6.70;4.73;;;17.00;99.90;;;;;;5051200;28;20459;-73
2021/07/18 02:26:11;;;;;;;6.13;5.53;;;16.90;99.90;;;;;;5051615;28;20463;-72
2021/07/18 02:28:37;;;;;;;7.57;5.57;;;16.90;99.90;;;;;;5051280;28;20466;-73
2021/07/18 02:31:06;;;;;;;6.03;5.43;;;16.90;99.90;;;;;;5050638;28;20955;-72
2021/07/18 02:33:33;;;;;;;6.87;5.90;;;16.90;99.90;;;;;;5050918;28;20492;-73
2021/07/18 02:36:00;;;;;;;11.87;4.83;;;16.90;99.90;;;;;;5051250;28;20459;-73
2021/07/18 02:38:27;;;;;;;6.37;5.27;;;16.80;99.90;;;;;;5051441;28;20509;-72
2021/07/18 02:40:55;;;;;;;6.37;5.23;;;16.80;99.90;;;;;;5050347;28;20466;-73
2021/07/18 02:43:21;;;;;;;5.80;5.20;;;16.80;99.90;;;;;;5051061;28;20459;-73
2021/07/18 02:45:48;;;;;;;5.13;4.63;;;16.80;99.90;;;;;;5050587;28;20483;-73
2021/07/18 02:48:16;;;;;;;8.10;5.23;;;16.70;99.90;;;;;;5051468;28;20475;-72
2021/07/18 02:50:43;;;;;;;5.63;5.07;;;16.80;99.90;;;;;;5050288;28;20459;-73
2021/07/18 02:53:11;;;;;;;5.80;5.10;;;16.80;99.90;;;;;;5050660;28;20900;-73
2021/07/18 02:55:37;;;;;;;6.90;4.40;;;16.80;99.90;;;;;;5050805;28;21024;-73
2021/07/18 02:58:04;;;;;;;5.90;4.27;;;16.70;99.90;;;;;;5050684;28;21018;-73
2021/07/18 03:00:31;;;;;;;8.53;4.97;;;16.70;99.90;;;;;;5050269;28;20467;-73
2021/07/18 03:02:58;;;;;;;9.20;4.80;;;16.70;99.90;;;;;;5049634;28;20455;-73
2021/07/18 03:05:26;;;;;;;7.87;5.67;;;16.60;99.90;;;;;;5050744;28;20541;-73
2021/07/18 03:07:52;;;;;;;6.23;4.40;;;16.60;99.90;;;;;;5050330;28;20463;-73
2021/07/18 03:10:20;;;;;;;6.27;4.43;;;16.60;99.90;;;;;;5049989;28;21216;-73
2021/07/18 03:12:47;;;;;;;5.60;4.40;;;16.60;99.90;;;;;;5050236;28;20498;-73
2021/07/18 03:15:15;;;;;;;4.87;4.37;;;16.50;99.90;;;;;;5050509;28;20845;-73
2021/07/18 03:17:42;;;;;;;6.40;5.20;;;16.60;99.90;;;;;;5050512;28;20466;-73
2021/07/18 03:20:12;;;;;;;6.67;5.17;;;16.50;99.90;;;;;;5050086;28;20463;-73
2021/07/18 03:22:41;;;;;;;5.30;4.80;;;16.50;99.90;;;;;;5049992;28;20807;-72
2021/07/18 03:25:09;;;;;;;6.03;5.53;;;16.50;99.90;;;;;;5050188;28;20506;-73
2021/07/18 03:27:36;;;;;;;6.33;5.80;;;16.40;99.90;;;;;;5050196;28;20471;-73
2021/07/18 03:30:04;;;;;;;8.37;6.40;;;16.40;99.90;;;;;;5049650;28;20463;-73
2021/07/18 03:32:31;;;;;;;6.47;5.80;;;16.40;99.90;;;;;;5049989;28;20548;-72
2021/07/18 03:34:58;;;;;;;7.20;5.27;;;16.30;99.90;;;;;;5049672;28;20533;-72
2021/07/18 03:37:24;;;;;;;6.33;5.43;;;16.30;99.90;;;;;;5050094;28;20950;-72
2021/07/18 03:39:52;;;;;;;5.97;5.40;;;16.30;99.90;;;;;;5049332;28;20474;-72
2021/07/18 03:42:19;;;;;;;7.10;5.33;;;16.20;99.90;;;;;;5050017;28;20464;-72
2021/07/18 03:44:46;;;;;;;6.90;5.87;;;16.20;99.90;;;;;;5049552;28;20486;-72
2021/07/18 03:47:13;;;;;;;8.10;5.70;;;16.10;99.90;;;;;;5050070;28;20459;-73
2021/07/18 03:49:39;;;;;;;8.53;5.83;;;16.10;99.90;;;;;;5049299;28;20842;-73
2021/07/18 03:52:07;;;;;;;7.17;5.80;;;16.00;99.90;;;;;;5049463;28;21450;-73
2021/07/18 03:54:33;;;;;;;8.60;6.20;;;16.00;99.90;;;;;;5049772;28;20476;-72
2021/07/18 03:57:01;;;;;;;7.93;5.87;;;16.00;99.90;;;;;;5049371;28;21056;-72
2021/07/18 03:59:28;;;;;;;6.40;5.80;;;15.90;99.90;;;;;;5049442;28;20535;-73
2021/07/18 04:01:55;;;;;;;8.50;5.23;;;15.90;99.90;;;;;;5049445;28;20463;-72
2021/07/18 04:04:21;;;;;;;5.73;4.97;;;15.90;99.90;;;;;;5049588;28;20549;-72
2021/07/18 04:06:48;;;;;;;6.17;5.30;;;15.90;99.90;;;;;;5048918;28;20478;-72
2021/07/18 04:09:15;;;;;;;6.70;5.17;;;15.80;99.90;;;;;;5048974;28;20463;-72
2021/07/18 04:11:41;;;;;;;7.93;5.50;;;15.80;99.90;;;;;;5049372;28;20470;-72
2021/07/18 04:14:09;;;;;;;6.10;5.30;;;15.80;99.90;;;;;;5049134;28;20487;-72
2021/07/18 04:16:36;;;;;;;6.03;5.40;;;15.70;99.90;;;;;;5049562;28;21036;-73
2021/07/18 04:19:03;;;;;;;7.10;5.07;;;15.70;99.90;;;;;;5048913;28;20463;-72
2021/07/18 04:21:29;;;;;;;8.00;5.90;;;15.70;99.90;;;;;;5048824;28;20823;-72
2021/07/18 04:23:56;;;;;;;6.97;5.10;;;15.60;99.90;;;;;;5048889;28;20475;-72
2021/07/18 04:26:23;;;;;;;7.63;5.27;;;15.60;99.90;;;;;;5049474;28;20459;-72
2021/07/18 04:28:49;;;;;;;10.43;5.33;;;15.60;99.90;;;;;;5049126;28;20455;-72
2021/07/18 04:31:18;;;;;;;5.87;5.10;;;15.60;99.90;;;;;;5048911;28;20463;-72
2021/07/18 04:33:44;;;;;;;7.97;7.17;;;15.60;99.90;;;;;;5047543;28;20491;-72
2021/07/18 04:36:11;;;;;;;6.10;5.47;;;15.60;99.90;;;;;;5049675;28;20866;-72
2021/07/18 04:38:38;;;;;;;5.80;5.30;;;15.60;99.90;;;;;;5049028;28;20463;-72
2021/07/18 04:41:05;;;;;;;5.40;4.90;;;15.60;99.90;;;;;;5048538;28;20970;-72
2021/07/18 04:43:31;;;;;;;5.37;4.47;;;15.60;99.90;;;;;;5049211;28;20463;-73
2021/07/18 04:45:58;;;;;;;5.00;4.60;;;15.60;99.90;;;;;;5048923;28;20463;-72
2021/07/18 04:48:26;;;;;;;5.53;5.03;;;15.60;99.90;;;;;;5049139;28;20482;-72
2021/07/18 04:50:53;;;;;;;5.43;4.70;;;15.70;99.90;;;;;;5048185;28;20463;-72
2021/07/18 04:53:19;;;;;;;5.77;5.20;;;15.70;99.90;;;;;;5048965;28;20487;-72
2021/07/18 04:55:46;;;;;;;6.30;5.10;;;15.70;99.90;;;;;;5048609;28;20532;-72
2021/07/18 04:58:13;;;;;;;6.07;4.70;;;15.70;99.90;;;;;;5049118;28;20828;-72
2021/07/18 05:00:39;;;;;;;5.30;4.80;;;15.70;99.90;;;;;;5048410;28;20520;-73
2021/07/18 05:03:06;;;;;;;5.13;4.50;;;15.80;99.90;;;;;;5048647;28;21089;-72
2021/07/18 05:05:34;;;;;;;6.90;4.50;;;15.80;99.90;;;;;;5048873;28;20490;-72
2021/07/18 05:08:01;;;;;;;5.00;4.50;;;15.80;99.90;;;;;;5048492;28;20474;-73
2021/07/18 05:10:29;;;;;;;5.33;4.17;;;15.80;99.90;;;;;;5048460;28;20966;-73
2021/07/18 05:12:58;;;;;;;6.43;4.70;;;15.80;99.90;;;;;;5048168;28;20486;-72
2021/07/18 05:15:27;;;;;;;5.60;4.70;;;15.90;99.90;;;;;;5048918;28;20484;-73
2021/07/18 05:17:54;;;;;;;5.03;4.37;;;15.90;99.90;;;;;;5056237;28;20858;-72
2021/07/18 05:20:22;;;;;;;6.83;5.20;;;15.90;99.90;;;;;;5057004;28;20886;-72
2021/07/18 05:22:50;;;;;;;8.10;4.90;;;15.90;99.90;;;;;;5058190;28;20533;-72
2021/07/18 05:25:17;;;;;;;6.43;4.60;;;16.00;99.90;;;;;;5057929;28;20909;-72
2021/07/18 05:27:44;;;;;;;4.43;4.03;;;16.00;99.90;;;;;;5073162;28;20462;-72
2021/07/18 05:30:14;;;;;;;4.90;3.97;;;16.00;99.90;;;;;;5072676;28;20458;-72
2021/07/18 05:32:42;;;;;;;5.40;4.17;;;16.10;99.90;;;;;;5073341;28;20805;-72
2021/07/18 05:35:10;;;;;;;3.60;3.13;;;16.10;99.90;;;;;;5072937;28;20511;-72
2021/07/18 05:37:37;;;;;;;4.07;3.63;;;16.10;99.90;;;;;;5073359;28;20816;-72
2021/07/18 05:40:08;;;;;;;5.63;3.23;;;16.20;99.90;;;;;;5072584;28;20547;-72
2021/07/18 05:42:35;;;;;;;3.83;3.10;;;16.20;99.90;;;;;;5072952;28;20465;-72
2021/07/18 05:45:04;;;;;;;6.33;3.07;;;16.20;99.90;;;;;;5072842;28;20474;-72
2021/07/18 05:47:33;;;;;;;5.20;3.30;;;16.30;99.90;;;;;;5072774;28;20466;-72
2021/07/18 05:50:00;;;;;;;3.10;2.60;;;16.40;99.90;;;;;;5072086;28;20508;-72
2021/07/18 05:52:27;;;;;;;5.73;3.23;;;16.40;99.90;;;;;;5072715;28;20458;-73
2021/07/18 05:54:55;;;;;;;5.73;3.20;;;16.50;99.90;;;;;;5072325;28;20540;-72
2021/07/18 05:57:23;;;;;;;5.70;3.37;;;16.50;99.90;;;;;;5072588;28;20545;-73
2021/07/18 05:59:49;;;;;;;3.70;2.77;;;16.50;99.90;;;;;;5071989;28;20462;-72
2021/07/18 06:02:16;;;;;;;6.30;2.80;;;16.50;99.90;;;;;;5072593;28;20866;-72
2021/07/18 06:04:43;;;;;;;3.53;3.20;;;16.60;99.90;;;;;;5071842;28;20473;-72
2021/07/18 06:07:10;;;;;;;4.90;3.17;;;16.60;99.90;;;;;;5072308;28;20531;-73
2021/07/18 06:09:36;;;;;;;3.33;2.77;;;16.70;99.90;;;;;;5071641;28;20458;-73
2021/07/18 06:12:04;;;;;;;6.80;2.90;;;16.70;99.90;;;;;;5071679;28;20549;-72
2021/07/18 06:14:33;;;;;;;3.20;2.90;;;16.80;99.90;;;;;;5053702;28;20487;-72
2021/07/18 06:16:59;;;;;;;3.50;2.50;;;16.80;99.90;;;;;;5051718;28;20463;-72
2021/07/18 06:19:26;;;;;;;3.40;3.10;;;16.80;99.90;;;;;;5049586;28;20840;-73
2021/07/18 06:21:53;;;;;;;5.13;2.40;;;16.80;99.90;;;;;;5173354;22;20496;-73
2021/07/18 06:24:19;;;;;;;5.53;2.83;;;16.90;99.90;;;;;;5090356;28;20851;-73
2021/07/18 06:26:46;;;;;;;2.70;2.50;;;16.90;99.90;;;;;;5091560;28;20464;-73
2021/07/18 06:29:13;;;;;;;3.03;2.80;;;17.00;99.90;;;;;;5090874;28;20824;-73
2021/07/18 06:31:41;;;;;;;3.07;2.77;;;17.00;99.90;;;;;;5091932;28;20469;-73
2021/07/18 06:34:08;;;;;;;4.70;2.60;;;17.00;99.90;;;;;;5090780;28;20494;-73
2021/07/18 06:36:34;;;;;;;4.17;3.13;;;17.10;99.90;;;;;;5090950;28;20964;-73
2021/07/18 06:39:01;;;;;;;3.53;2.70;;;17.10;99.90;;;;;;5090813;28;20473;-73
2021/07/18 06:41:28;;;;;;;2.60;2.40;;;17.10;99.90;;;;;;5090941;28;20465;-73
2021/07/18 06:43:55;;;;;;;4.00;2.70;;;17.20;99.90;;;;;;5091160;28;20481;-73
2021/07/18 06:46:21;;;;;;;4.10;2.80;;;17.20;99.90;;;;;;5090870;28;20465;-73
2021/07/18 06:48:49;;;;;;;3.27;2.73;;;17.20;99.90;;;;;;5091254;28;20464;-73
2021/07/18 06:51:17;;;;;;;3.63;3.00;;;17.20;99.90;;;;;;5090358;28;20465;-73
2021/07/18 06:53:44;;;;;;;4.27;2.50;;;17.30;99.90;;;;;;5090868;28;20485;-73
2021/07/18 06:56:11;;;;;;;2.67;2.40;;;17.30;99.90;;;;;;5090626;28;20836;-73
2021/07/18 06:58:38;;;;;;;3.00;2.20;;;17.40;99.90;;;;;;5090868;28;20552;-73
2021/07/18 07:01:05;;;;;;;3.17;2.70;;;17.50;99.90;;;;;;5090341;28;20466;-73
2021/07/18 07:03:31;;;;;;;3.07;2.53;;;17.50;99.90;;;;;;5090187;28;20948;-73
2021/07/18 07:06:01;;;;;;;3.30;2.40;;;17.50;99.90;;;;;;5090852;28;20454;-73
2021/07/18 07:08:27;;;;;;;3.00;2.60;;;17.60;99.90;;;;;;5090522;28;20465;-73
2021/07/18 07:10:54;;;;;;;2.60;2.40;;;17.70;99.90;;;;;;5090078;28;20461;-73
2021/07/18 07:13:21;;;;;;;3.20;2.70;;;17.70;99.90;;;;;;5089892;28;20469;-73
2021/07/18 07:15:47;;;;;;;4.00;2.63;;;17.80;99.90;;;;;;5090234;28;20481;-73
2021/07/18 07:18:14;;;;;;;4.77;2.60;;;17.80;99.90;;;;;;5089905;28;20457;-73
2021/07/18 07:20:41;;;;;;;2.60;2.40;;;17.80;99.90;;;;;;5089983;28;20473;-70
2021/07/18 07:23:09;;;;;;;4.03;2.53;;;17.90;99.90;;;;;;5090336;28;20464;-70
2021/07/18 07:25:36;;;;;;;3.70;2.70;;;18.00;99.90;;;;;;5081061;28;20478;-70
2021/07/18 07:28:03;;;;;;;4.93;2.80;;;18.00;99.90;;;;;;5060106;28;20454;-70
2021/07/18 07:30:29;;;;;;;4.80;2.80;;;18.10;99.90;;;;;;5068869;28;20462;-71
2021/07/18 07:32:56;;;;;;;6.53;2.90;;;18.20;99.90;;;;;;5069252;28;20965;-71
2021/07/18 07:35:23;;;;;;;4.93;2.87;;;18.20;99.90;;;;;;5069041;28;20487;-71
2021/07/18 07:37:50;;;;;;;6.30;3.20;;;18.30;99.90;;;;;;5069460;28;20455;-70
2021/07/18 07:40:20;;;;;;;5.50;2.80;;;18.40;99.90;;;;;;5052309;28;20460;-71
2021/07/18 07:42:48;;;;;;;9.20;3.60;;;18.40;99.90;;;;;;5069167;28;20961;-71
2021/07/18 07:45:15;;;;;;;4.10;3.17;;;18.50;99.90;;;;;;5069085;28;20474;-71
2021/07/18 07:47:42;;;;;;;3.50;2.83;;;18.50;99.90;;;;;;5069243;28;20458;-70
2021/07/18 07:50:10;;;;;;;3.80;2.87;;;18.50;99.90;;;;;;5068216;28;20462;-71
2021/07/18 07:52:37;;;;;;;5.37;3.20;;;18.60;99.90;;;;;;5068835;28;20459;-70
2021/07/18 07:55:05;;;;;;;4.27;3.00;;;18.60;99.90;;;;;;5068730;28;20482;-70
2021/07/18 07:57:33;;;;;;;3.53;2.97;;;18.70;99.90;;;;;;5068839;28;20493;-70
2021/07/18 08:00:00;;;;;;;3.10;2.80;;;18.70;99.90;;;;;;5068836;28;20480;-70
2021/07/18 08:02:27;;;;;;;5.23;2.60;;;18.80;99.90;;;;;;5068297;28;20528;-70
2021/07/18 08:04:53;;;;;;;3.17;2.80;;;18.90;99.90;;;;;;5068862;28;20973;-70
2021/07/18 08:07:20;;;;;;;3.73;2.60;;;18.90;99.90;;;;;;5068748;28;20458;-70
2021/07/18 08:09:47;;;;;;;3.57;3.03;;;19.00;99.90;;;;;;5066997;28;20459;-70
2021/07/18 08:12:14;;;;;;;5.97;3.10;;;19.10;99.90;;;;;;5050383;28;20563;-70
2021/07/18 08:14:42;;;;;;;3.73;3.17;;;19.10;99.90;;;;;;5061797;28;20539;-70
2021/07/18 08:17:09;;;;;;;3.87;2.90;;;19.20;99.90;;;;;;5068125;28;21018;-71
2021/07/18 08:19:38;;;;;;;4.00;3.10;;;19.20;99.90;;;;;;5063365;28;20478;-70
2021/07/18 08:22:04;;;;;;;4.10;2.97;;;19.30;99.90;;;;;;5048199;28;20471;-71
2021/07/18 08:24:31;;;;;;;5.93;2.93;;;19.30;99.90;;;;;;5047836;28;20475;-71
2021/07/18 08:26:58;;;;;;;4.00;3.60;;;19.40;99.90;;;;;;5048422;28;20551;-70
2021/07/18 08:29:26;;;;;;;3.40;3.00;;;19.40;99.90;;;;;;5047527;28;20459;-70
2021/07/18 08:31:58;;;;;;;4.63;3.30;;;19.40;99.90;;;;;;5048019;28;20478;-70
2021/07/18 08:34:25;;;;;;;4.70;3.70;;;19.50;99.90;;;;;;5048227;28;20486;-71
2021/07/18 08:36:51;;;;;;;4.90;3.50;;;19.50;99.90;;;;;;5048288;28;20451;-71
2021/07/18 08:39:18;;;;;;;4.33;2.90;;;19.60;99.90;;;;;;5047149;28;20470;-71
2021/07/18 08:41:46;;;;;;;3.80;3.17;;;19.70;99.90;;;;;;5046203;28;20971;-71
2021/07/18 08:44:13;;;;;;;3.40;3.07;;;19.80;99.90;;;;;;5047709;28;20486;-71
2021/07/18 08:46:40;;;;;;;4.30;3.03;;;19.80;99.90;;;;;;5061983;28;20874;-71
2021/07/18 08:49:09;;;;;;;9.43;2.60;;;19.90;99.90;;;;;;5067376;28;20451;-71
2021/07/18 08:51:37;;;;;;;6.43;3.53;;;20.00;99.90;;;;;;5068668;28;20850;-71
2021/07/18 08:54:05;;;;;;;4.27;3.30;;;20.10;99.90;;;;;;5067306;28;20536;-71
2021/07/18 08:56:32;;;;;;;5.20;3.20;;;20.10;99.90;;;;;;5056817;28;20458;-71
2021/07/18 08:59:00;;;;;;;3.70;3.40;;;20.20;99.90;;;;;;5047918;28;20517;-71
2021/07/18 09:01:27;;;;;;;4.07;2.90;;;20.30;99.90;;;;;;5049095;28;20467;-71
2021/07/18 09:03:53;;;;;;;3.40;3.10;;;20.40;99.90;;;;;;5051770;28;20479;-71
2021/07/18 09:06:22;;;;;;;5.10;3.20;;;20.50;99.90;;;;;;5051770;28;20976;-71
2021/07/18 09:08:49;;;;;;;3.50;3.20;;;20.50;99.90;;;;;;5064095;28;20482;-71
2021/07/18 09:11:21;;;;;;;4.03;3.10;;;20.60;99.90;;;;;;5068037;28;20469;-71
2021/07/18 09:13:59;;;;;;;6.23;3.20;;;20.60;99.90;;;;;;5057434;28;20497;-71
2021/07/18 09:16:28;;;;;;;4.00;3.60;;;20.70;99.90;;;;;;5062244;28;20465;-71
2021/07/18 09:19:13;;;;;;;4.40;3.17;;;20.70;99.90;;;;;;5061795;28;20447;-70
2021/07/18 09:21:48;;;;;;;3.63;2.90;;;20.90;99.90;;;;;;5062365;28;20467;-70
2021/07/18 09:24:21;;;;;;;3.70;3.30;;;20.90;99.90;;;;;;5061448;28;20481;-71
2021/07/18 09:27:13;;;;;;;6.13;3.67;;;21.00;99.90;;;;;;5060605;28;20459;-71
2021/07/18 09:29:43;;;;;;;4.83;3.40;;;21.00;99.90;;;;;;5064332;28;20834;-71
2021/07/18 09:32:12;;;;;;;3.70;2.90;;;21.20;99.90;;;;;;5071186;28;20473;-71
2021/07/18 09:34:40;;;;;;;4.40;3.43;;;21.30;99.90;;;;;;5071586;28;20493;-70
2021/07/18 09:37:21;;;;;;;4.77;3.43;;;21.40;99.90;;;;;;5071444;28;20469;-71
2021/07/18 09:39:54;;;;;;;4.07;3.33;;;21.40;99.90;;;;;;5071481;28;21039;-71
2021/07/18 09:42:45;;;;;;;5.67;3.30;;;21.50;99.90;;;;;;5071684;28;20569;-71
2021/07/18 09:45:18;;;;;;;4.83;3.17;;;21.50;99.90;;;;;;5060913;28;20475;-71
2021/07/18 09:47:57;;;;;;;7.70;3.43;;;21.60;99.90;;;;;;5071934;28;20462;-70
2021/07/18 09:50:28;;;;;;;5.80;3.40;;;21.60;99.90;;;;;;5070860;28;20477;-73
2021/07/18 09:53:07;;;;;;;4.63;3.37;;;21.70;99.90;;;;;;5071754;28;20485;-71
2021/07/18 09:55:34;;;;;;;6.60;3.10;;;21.80;99.90;;;;;;5071715;28;20520;-71
2021/07/18 09:58:00;;;;;;;3.90;2.87;;;21.80;99.90;;;;;;5071487;28;20458;-71
2021/07/18 10:00:38;;;;;;;4.17;2.97;;;21.90;99.90;;;;;;5070125;28;20473;-71
2021/07/18 10:03:13;;;;;;;4.80;3.30;;;22.00;99.90;;;;;;5070850;28;20458;-71
2021/07/18 10:05:40;;;;;;;4.47;2.90;;;22.10;99.90;;;;;;5071733;28;20470;-71
2021/07/18 10:08:09;;;;;;;4.57;2.80;;;22.20;99.90;;;;;;5071200;28;20458;-71
2021/07/18 10:10:38;;;;;;;7.60;3.00;;;22.30;99.90;;;;;;5071160;28;20508;-71
2021/07/18 10:13:06;;;;;;;3.90;3.00;;;22.40;99.90;;;;;;5071179;28;20816;-71
2021/07/18 10:15:33;;;;;;;6.57;3.20;;;22.50;99.90;;;;;;5071367;28;20490;-71
2021/07/18 10:18:00;;;;;;;7.20;2.30;;;22.60;99.90;;;;;;5071381;28;20458;-71
2021/07/18 10:20:27;;;;;;;3.33;2.63;;;22.60;99.90;;;;;;5070645;28;20478;-71
2021/07/18 10:22:56;;;;;;;3.30;3.00;;;22.60;99.90;;;;;;5071254;28;20470;-71
2021/07/18 10:25:25;;;;;;;3.13;2.40;;;22.70;99.90;;;;;;5070777;28;20478;-71
2021/07/18 10:27:52;;;;;;;6.67;2.90;;;22.70;99.90;;;;;;5071344;28;20458;-71
2021/07/18 10:30:21;;;;;;;3.30;3.00;;;22.70;99.90;;;;;;5070322;28;20471;-71
2021/07/18 10:32:51;;;;;;;6.07;2.93;;;22.70;99.90;;;;;;5071532;28;20941;-71
2021/07/18 10:35:22;;;;;;;4.60;2.50;;;22.70;99.90;;;;;;5070666;28;20988;-71
2021/07/18 10:37:49;;;;;;;4.40;2.73;;;22.70;99.90;;;;;;5071282;28;20556;-71
2021/07/18 10:40:21;;;;;;;6.10;3.67;;;22.80;99.90;;;;;;5070271;28;20463;-71
2021/07/18 10:42:50;;;;;;;3.50;2.87;;;22.90;99.90;;;;;;5070950;28;20539;-71
2021/07/18 10:45:23;;;;;;;3.10;2.80;;;22.90;99.90;;;;;;5070412;28;20479;-71
2021/07/18 10:48:02;;;;;;;5.17;3.17;;;23.00;99.90;;;;;;5070951;28;20466;-71
2021/07/18 10:50:51;;;;;;;3.03;2.77;;;23.10;99.90;;;;;;5070229;28;20466;-71
2021/07/18 10:53:19;;;;;;;5.67;3.10;;;23.20;99.90;;;;;;5070508;28;20477;-71
2021/07/18 10:55:47;;;;;;;4.00;2.97;;;23.20;99.90;;;;;;5070564;28;20486;-71
2021/07/18 10:58:57;;;;;;;4.47;3.73;;;23.30;99.90;;;;;;5070660;28;20467;-71
2021/07/18 11:01:36;;;;;;;3.70;2.90;;;23.30;99.90;;;;;;5069648;28;20463;-71
2021/07/18 11:04:05;;;;;;;4.17;3.07;;;23.30;99.90;;;;;;5070446;28;20510;-71
2021/07/18 11:06:34;;;;;;;4.00;2.70;;;23.30;99.90;;;;;;5070607;28;20533;-71
2021/07/18 11:09:13;;;;;;;3.50;2.60;;;23.40;99.90;;;;;;5070194;28;20443;-71
2021/07/18 11:11:41;;;;;;;5.20;3.20;;;23.60;99.90;;;;;;5070449;28;20497;-71
2021/07/18 11:14:27;;;;;;;4.77;3.07;;;23.70;99.90;;;;;;5069729;28;20490;-71
2021/07/18 11:16:55;;;;;;;3.27;2.80;;;23.80;99.90;;;;;;5070374;28;20460;-71
2021/07/18 11:19:57;;;;;;;4.27;2.40;;;23.80;99.90;;;;;;5069213;28;20471;-71
2021/07/18 11:23:00;;;;;;;4.30;3.30;;;23.90;99.90;;;;;;5069658;28;20458;-71
2021/07/18 11:25:48;;;;;;;6.57;3.70;;;23.90;99.90;;;;;;5069446;28;20486;-71
2021/07/18 11:28:39;;;;;;;4.40;3.00;;;23.90;99.90;;;;;;5070095;28;21000;-71
2021/07/18 11:31:27;;;;;;;6.33;3.53;;;23.90;99.90;;;;;;5069406;28;20486;-71
2021/07/18 11:33:56;;;;;;;5.13;3.17;;;24.00;99.90;;;;;;5069587;28;20477;-71
2021/07/18 11:36:44;;;;;;;4.10;3.30;;;24.00;99.90;;;;;;5069622;28;20492;-71
2021/07/18 11:39:16;;;;;;;7.70;3.10;;;24.10;99.90;;;;;;5068956;28;20987;-71
2021/07/18 11:41:44;;;;;;;4.13;3.20;;;24.20;99.90;;;;;;5069884;28;20462;-71
2021/07/18 11:44:12;;;;;;;3.77;3.00;;;24.20;99.90;;;;;;5069143;28;20482;-71
2021/07/18 11:46:42;;;;;;;4.03;3.07;;;24.20;99.90;;;;;;5069816;28;20469;-71
2021/07/18 11:49:10;;;;;;;3.63;3.03;;;24.30;99.90;;;;;;5069152;28;20767;-71
2021/07/18 11:51:40;;;;;;;4.23;2.90;;;24.40;99.90;;;;;;5069401;28;20511;-71
2021/07/18 11:54:07;;;;;;;4.30;3.20;;;24.50;99.90;;;;;;5069232;28;20478;-71
2021/07/18 11:56:36;;;;;;;7.80;3.13;;;24.60;99.90;;;;;;5069285;28;20494;-71
2021/07/18 11:59:06;;;;;;;4.40;3.47;;;24.70;99.90;;;;;;5069198;28;20470;-71
2021/07/18 12:01:35;;;;;;;3.43;3.00;;;24.70;99.90;;;;;;5069072;28;20482;-71
2021/07/18 12:04:05;;;;;;;4.90;3.10;;;24.70;99.90;;;;;;5069321;28;20837;-71
2021/07/18 12:06:32;;;;;;;5.07;3.27;;;24.60;99.90;;;;;;5069101;28;20454;-71
2021/07/18 12:09:00;;;;;;;5.80;3.10;;;24.70;99.90;;;;;;5069316;28;20470;-71
2021/07/18 12:11:29;;;;;;;4.63;3.77;;;24.70;99.90;;;;;;5068526;28;20577;-71
2021/07/18 12:13:59;;;;;;;4.23;3.60;;;24.80;99.90;;;;;;5068858;28;20993;-71
2021/07/18 12:16:26;;;;;;;4.53;3.53;;;24.80;99.90;;;;;;5068989;28;21044;-71
2021/07/18 12:18:55;;;;;;;4.63;3.43;;;24.90;99.90;;;;;;5068746;28;20458;-71
2021/07/18 12:21:26;;;;;;;4.73;3.43;;;24.80;99.90;;;;;;5092172;22;20476;-89
2021/07/18 12:24:13;;;;;;;3.87;3.53;;;24.80;99.90;;;;;;4970777;28;20501;-90
2021/07/18 12:26:41;;;;;;;5.17;3.10;;;24.80;99.90;;;;;;4970565;28;20499;-91
2021/07/18 12:29:10;;;;;;;6.73;4.73;;;24.90;99.90;;;;;;4972131;28;20513;-95
2021/07/18 12:31:38;;;;;;;5.83;4.60;;;24.90;99.90;;;;;;4972755;28;20514;-92
2021/07/18 12:34:05;;;;;;;5.00;4.50;;;25.00;99.90;;;;;;4971930;28;20471;-91
2021/07/18 12:36:50;;;;;;;5.20;4.40;;;25.10;99.90;;;;;;4971675;28;20470;-92
2021/07/18 12:39:27;;;;;;;5.87;4.70;;;25.10;99.90;;;;;;4972674;28;20459;-92
2021/07/18 12:41:57;;;;;;;7.97;4.80;;;25.10;99.90;;;;;;4975619;28;20478;-91
2021/07/18 12:44:36;;;;;;;6.23;4.50;;;25.20;99.90;;;;;;4973242;28;20495;-91
2021/07/18 12:47:38;;;;;;;7.70;5.53;;;25.30;99.90;;;;;;4971777;28;20479;-92
2021/07/18 12:50:26;;;;;;;7.03;6.13;;;25.40;99.90;;;;;;4970553;28;20463;-91
2021/07/18 12:53:02;;;;;;;8.07;6.70;;;25.40;99.90;;;;;;4973142;28;20491;-91
2021/07/18 12:55:34;;;;;;;7.87;6.13;;;25.20;99.90;;;;;;4972298;28;20455;-92